Time;durP1;ratioP1;P1;durP2;ratioP2;P2;SDS_P1;SDS_P2;PMS_P1;PMS_P2;Temp;Humidity;BMP_temperature;BMP_pressure;BME280_temperature;BME280_humidity;BME280_pressure;Samples;Min_cycle;Max_cycle;Signal;HPM_P1;HPM_P2
2021/05/13 00:00:58;;;;;;;4.90;4.40;;;15.80;82.10;;;;;;5112792;28;20368;-70
2021/05/13 00:03:24;;;;;;;8.57;5.10;;;15.80;82.00;;;;;;5112930;28;20513;-71
2021/05/13 00:05:49;;;;;;;5.20;4.28;;;15.80;81.90;;;;;;5112950;28;20024;-68
2021/05/13 00:08:15;;;;;;;6.57;5.10;;;15.80;81.60;;;;;;5112909;28;20492;-71
2021/05/13 00:10:41;;;;;;;6.63;4.78;;;15.80;81.10;;;;;;5112804;28;20023;-71
2021/05/13 00:13:09;;;;;;;6.60;4.80;;;15.80;80.70;;;;;;5113173;28;20068;-74
2021/05/13 00:15:38;;;;;;;7.82;3.85;;;15.70;80.70;;;;;;5112939;28;20482;-73
2021/05/13 00:18:04;;;;;;;8.23;4.03;;;15.70;80.80;;;;;;5112987;28;20073;-72
2021/05/13 00:20:33;;;;;;;5.70;4.35;;;15.70;80.80;;;;;;5112699;28;20031;-70
2021/05/13 00:22:59;;;;;;;7.15;4.15;;;15.70;80.70;;;;;;5112821;28;20035;-68
2021/05/13 00:25:26;;;;;;;5.07;4.00;;;15.70;80.70;;;;;;5115587;28;20023;-71
2021/05/13 00:27:52;;;;;;;8.75;3.70;;;15.70;80.70;;;;;;5116342;28;20031;-69
2021/05/13 00:30:19;;;;;;;6.65;4.32;;;15.70;80.60;;;;;;5116349;28;20073;-68
2021/05/13 00:32:45;;;;;;;4.90;3.45;;;15.70;80.50;;;;;;5116529;27;20426;-70
2021/05/13 00:35:13;;;;;;;3.97;3.47;;;15.70;80.70;;;;;;5116357;28;20505;-71
2021/05/13 00:37:39;;;;;;;7.68;3.55;;;15.60;80.70;;;;;;5116267;28;20024;-68
2021/05/13 00:40:07;;;;;;;5.07;3.90;;;15.60;80.80;;;;;;5116297;28;20023;-68
2021/05/13 00:42:33;;;;;;;8.43;3.70;;;15.60;80.60;;;;;;5116050;28;20032;-68
2021/05/13 00:44:59;;;;;;;5.15;3.75;;;15.60;80.50;;;;;;5116416;28;20080;-71
2021/05/13 00:47:28;;;;;;;7.38;3.72;;;15.60;80.60;;;;;;5116061;28;20387;-68
2021/05/13 00:49:54;;;;;;;5.35;3.85;;;15.60;80.50;;;;;;5115930;28;20062;-68
2021/05/13 00:52:21;;;;;;;8.57;3.88;;;15.60;80.60;;;;;;5115963;28;20471;-70
2021/05/13 00:54:47;;;;;;;5.88;3.95;;;15.60;81.60;;;;;;5115812;28;20016;-70
2021/05/13 00:57:13;;;;;;;4.82;3.75;;;15.60;81.00;;;;;;5115694;28;20486;-69
2021/05/13 00:59:43;;;;;;;6.63;3.55;;;15.60;81.00;;;;;;5112395;28;20127;-69
2021/05/13 01:02:09;;;;;;;8.55;3.67;;;15.60;80.90;;;;;;5112789;28;20063;-69
2021/05/13 01:04:35;;;;;;;4.43;3.55;;;15.60;81.50;;;;;;5114035;28;20028;-70
2021/05/13 01:07:01;;;;;;;7.03;4.05;;;15.60;81.50;;;;;;5115209;28;20042;-68
2021/05/13 01:09:30;;;;;;;4.97;3.75;;;15.60;81.70;;;;;;5115228;28;20031;-71
2021/05/13 01:11:59;;;;;;;9.65;3.65;;;15.60;81.80;;;;;;5115291;28;20464;-69
2021/05/13 01:17:01;;;;;;;8.32;4.20;;;15.60;81.40;;;;;;5115510;28;20458;-72
2021/05/13 01:19:27;;;;;;;5.95;3.80;;;15.60;81.40;;;;;;5115282;28;20051;-68
2021/05/13 01:21:53;;;;;;;11.82;4.10;;;15.60;81.20;;;;;;5115074;28;20124;-69
2021/05/13 01:24:19;;;;;;;7.53;4.43;;;15.60;81.20;;;;;;5115208;28;20420;-69
2021/05/13 01:26:46;;;;;;;8.25;4.10;;;15.60;80.70;;;;;;5115164;28;20032;-75
2021/05/13 01:29:16;;;;;;;3.95;3.53;;;15.60;81.00;;;;;;5114911;28;20057;-79
2021/05/13 01:31:41;;;;;;;4.68;3.58;;;15.60;81.40;;;;;;5114892;28;20031;-77
2021/05/13 01:34:08;;;;;;;8.00;5.47;;;15.50;81.30;;;;;;5114575;28;20020;-79
2021/05/13 01:36:35;;;;;;;8.77;5.72;;;15.50;82.10;;;;;;5114571;28;20031;-79
2021/05/13 01:39:03;;;;;;;7.03;5.68;;;15.50;82.40;;;;;;5114890;28;20399;-79
2021/05/13 01:41:28;;;;;;;6.18;5.53;;;15.50;82.60;;;;;;5114641;28;20039;-79
2021/05/13 01:43:54;;;;;;;6.90;5.50;;;15.50;82.60;;;;;;5114780;28;20375;-79
2021/05/13 01:46:20;;;;;;;8.90;6.15;;;15.50;82.90;;;;;;5114948;28;20059;-80
2021/05/13 01:48:46;;;;;;;6.03;4.88;;;15.50;83.00;;;;;;5114763;28;20513;-79
2021/05/13 01:51:11;;;;;;;6.38;4.90;;;15.50;83.10;;;;;;5114537;28;20084;-79
2021/05/13 01:53:43;;;;;;;7.60;5.18;;;15.50;82.90;;;;;;5114581;28;20398;-79
2021/05/13 01:56:11;;;;;;;5.45;4.80;;;15.50;82.80;;;;;;5114724;28;20032;-79
2021/05/13 01:58:37;;;;;;;6.30;5.57;;;15.50;83.00;;;;;;5114086;28;20020;-79
2021/05/13 02:01:04;;;;;;;10.95;6.00;;;15.50;83.10;;;;;;5113943;28;20055;-78
2021/05/13 02:03:30;;;;;;;9.05;5.63;;;15.50;83.10;;;;;;5114370;28;20030;-78
2021/05/13 02:05:56;;;;;;;8.60;5.60;;;15.50;83.20;;;;;;5114216;28;20023;-79
2021/05/13 02:08:22;;;;;;;7.30;5.20;;;15.50;83.30;;;;;;5114376;28;20031;-78
2021/05/13 02:10:48;;;;;;;8.68;5.95;;;15.40;83.90;;;;;;5114295;28;20464;-78
2021/05/13 02:13:14;;;;;;;9.20;6.93;;;15.50;83.30;;;;;;5114297;28;20026;-79
2021/05/13 02:15:40;;;;;;;9.98;7.25;;;15.50;83.60;;;;;;5114274;28;20057;-79
2021/05/13 02:18:06;;;;;;;8.70;7.90;;;15.50;83.50;;;;;;5114357;28;20031;-80
2021/05/13 02:20:32;;;;;;;7.20;6.53;;;15.50;83.60;;;;;;5114354;28;20373;-79
2021/05/13 02:22:58;;;;;;;9.43;6.90;;;15.50;83.40;;;;;;5114121;28;20031;-79
2021/05/13 02:25:31;;;;;;;10.38;6.68;;;15.40;83.20;;;;;;5114279;28;20028;-77
2021/05/13 02:27:59;;;;;;;6.32;5.70;;;15.40;83.20;;;;;;5113945;28;20031;-78
2021/05/13 02:30:25;;;;;;;8.18;5.85;;;15.40;82.60;;;;;;5114202;28;20521;-79
2021/05/13 02:32:51;;;;;;;11.45;6.45;;;15.40;82.30;;;;;;5114043;28;20011;-79
2021/05/13 02:35:17;;;;;;;7.32;5.50;;;15.40;82.00;;;;;;5114185;28;20050;-78
2021/05/13 02:37:42;;;;;;;6.25;5.43;;;15.40;82.40;;;;;;5114059;28;20026;-79
2021/05/13 02:40:10;;;;;;;11.57;7.22;;;15.40;82.60;;;;;;5113651;28;20027;-79
2021/05/13 02:42:36;;;;;;;10.02;5.90;;;15.40;82.40;;;;;;5114238;28;20023;-78
2021/05/13 02:45:04;;;;;;;8.10;6.00;;;15.40;82.50;;;;;;5113992;28;20047;-79
2021/05/13 02:47:30;;;;;;;10.57;6.40;;;15.40;82.40;;;;;;5112998;28;20426;-77
2021/05/13 02:49:56;;;;;;;10.75;6.03;;;15.40;82.40;;;;;;5113717;28;20020;-76
2021/05/13 02:52:22;;;;;;;9.07;5.70;;;15.40;82.40;;;;;;5113855;28;20028;-79
2021/05/13 02:54:47;;;;;;;8.45;5.82;;;15.40;82.70;;;;;;5113710;28;20037;-79
2021/05/13 02:57:14;;;;;;;7.47;5.72;;;15.40;82.80;;;;;;5113457;28;20573;-79
2021/05/13 03:00:15;;;;;;;8.15;5.70;;;15.30;83.30;;;;;;5112976;28;20491;-79
2021/05/13 03:02:25;;;;;;;13.73;6.38;;;15.40;83.20;;;;;;5113061;28;20484;-79
2021/05/13 03:04:51;;;;;;;10.68;6.10;;;15.30;83.50;;;;;;5113664;28;20028;-79
2021/05/13 03:07:17;;;;;;;10.57;6.15;;;15.40;83.60;;;;;;5113727;28;20127;-79
2021/05/13 03:09:46;;;;;;;9.48;6.13;;;15.40;83.50;;;;;;5113477;28;20027;-79
2021/05/13 03:12:12;;;;;;;12.50;6.82;;;15.30;82.90;;;;;;5113404;28;20036;-79
2021/05/13 03:14:38;;;;;;;8.88;6.90;;;15.30;82.80;;;;;;5113615;28;20061;-76
2021/05/13 03:17:04;;;;;;;10.18;7.38;;;15.30;82.80;;;;;;5113409;28;20019;-70
2021/05/13 03:19:43;;;;;;;12.02;7.78;;;15.30;82.90;;;;;;5113201;28;20464;-79
2021/05/13 03:22:12;;;;;;;10.90;7.80;;;15.30;83.10;;;;;;5113130;28;20118;-78
2021/05/13 03:24:59;;;;;;;8.88;8.02;;;15.30;83.30;;;;;;5113523;28;20065;-72
2021/05/13 03:29:51;;;;;;;9.25;8.02;;;15.20;84.00;;;;;;5113360;28;20483;-73
2021/05/13 03:32:17;;;;;;;9.18;8.07;;;15.20;84.20;;;;;;5113135;28;20030;-69
2021/05/13 03:34:43;;;;;;;8.48;7.35;;;15.20;84.40;;;;;;5113376;28;20027;-69
2021/05/13 03:37:08;;;;;;;9.40;7.35;;;15.20;84.50;;;;;;5113615;28;20023;-70
2021/05/13 03:39:34;;;;;;;10.68;7.68;;;15.10;84.70;;;;;;5113140;28;20027;-76
2021/05/13 03:42:00;;;;;;;9.15;7.53;;;15.10;84.70;;;;;;5113255;28;20380;-73
2021/05/13 03:44:25;;;;;;;8.25;7.45;;;15.10;84.80;;;;;;5113353;28;20028;-71
2021/05/13 03:46:51;;;;;;;8.10;7.40;;;15.10;85.10;;;;;;5113132;28;20056;-69
2021/05/13 03:49:17;;;;;;;8.70;7.88;;;15.20;85.20;;;;;;5112970;28;20102;-69
2021/05/13 03:51:42;;;;;;;10.38;7.80;;;15.20;85.30;;;;;;5113260;28;20020;-74
2021/05/13 03:54:08;;;;;;;9.48;8.20;;;15.20;85.30;;;;;;5113017;28;20028;-71
2021/05/13 03:56:34;;;;;;;9.40;8.38;;;15.20;85.30;;;;;;5113230;28;20027;-80
2021/05/13 03:59:05;;;;;;;12.10;8.50;;;15.20;85.40;;;;;;5113620;28;20031;-79
2021/05/13 04:04:10;;;;;;;11.02;9.80;;;15.20;85.60;;;;;;5117205;28;20035;-73
2021/05/13 04:06:36;;;;;;;10.70;9.65;;;15.20;85.60;;;;;;5116959;28;20031;-70
2021/05/13 04:09:07;;;;;;;9.70;8.65;;;15.10;85.60;;;;;;5116885;28;20121;-70
2021/05/13 04:11:33;;;;;;;12.93;9.57;;;15.10;85.60;;;;;;5116703;28;20487;-74
2021/05/13 04:13:59;;;;;;;23.52;10.07;;;15.10;85.70;;;;;;5116759;28;20090;-70
2021/05/13 04:16:28;;;;;;;12.52;9.00;;;15.10;85.70;;;;;;5116717;28;20019;-79
2021/05/13 04:18:54;;;;;;;12.27;8.60;;;15.20;85.90;;;;;;5116806;28;20024;-79
2021/05/13 04:21:20;;;;;;;12.13;9.20;;;15.20;85.80;;;;;;5116557;28;20076;-79
2021/05/13 04:23:46;;;;;;;8.93;7.90;;;15.20;85.90;;;;;;5116422;28;20491;-78
2021/05/13 04:26:12;;;;;;;8.35;6.70;;;15.20;85.60;;;;;;5116195;28;20027;-79
2021/05/13 04:28:37;;;;;;;7.63;5.97;;;15.20;85.60;;;;;;5116455;28;20027;-77
2021/05/13 04:31:03;;;;;;;8.73;6.60;;;15.20;85.50;;;;;;5116511;28;20026;-79
2021/05/13 04:33:31;;;;;;;12.82;6.32;;;15.20;85.70;;;;;;5116531;28;20066;-78
2021/05/13 04:35:57;;;;;;;9.90;6.15;;;15.20;85.60;;;;;;5116402;28;20028;-79
2021/05/13 04:38:22;;;;;;;10.40;5.88;;;15.20;85.70;;;;;;5116073;28;20047;-77
2021/05/13 04:40:50;;;;;;;9.40;5.90;;;15.20;85.60;;;;;;5115925;28;20055;-79
2021/05/13 04:43:16;;;;;;;6.70;4.72;;;15.20;85.70;;;;;;5116442;28;20593;-79
2021/05/13 04:45:42;;;;;;;7.90;4.30;;;15.20;85.60;;;;;;5116146;28;20098;-79
2021/05/13 04:48:12;;;;;;;5.68;3.97;;;15.20;85.40;;;;;;5116189;28;20023;-79
2021/05/13 04:50:38;;;;;;;5.10;3.40;;;15.20;85.10;;;;;;5116176;28;20020;-78
2021/05/13 04:53:08;;;;;;;7.30;3.33;;;15.20;84.80;;;;;;5115798;28;20027;-79
2021/05/13 04:55:41;;;;;;;4.68;3.30;;;15.20;84.80;;;;;;5115907;28;20387;-78
2021/05/13 04:58:08;;;;;;;10.63;3.40;;;15.30;84.70;;;;;;5115782;28;20069;-80
2021/05/13 05:00:34;;;;;;;7.45;3.63;;;15.30;84.60;;;;;;5115864;28;20127;-79
2021/05/13 05:03:00;;;;;;;7.22;3.63;;;15.30;84.70;;;;;;5115899;28;20030;-79
2021/05/13 05:05:26;;;;;;;4.28;3.75;;;15.30;84.80;;;;;;5115889;28;20414;-78
2021/05/13 05:07:52;;;;;;;6.97;4.20;;;15.30;84.70;;;;;;5115730;28;20016;-79
2021/05/13 05:10:18;;;;;;;5.60;4.40;;;15.30;84.60;;;;;;5114935;28;20023;-79
2021/05/13 05:12:44;;;;;;;9.75;4.82;;;15.30;84.70;;;;;;5115621;28;20092;-73
2021/05/13 05:15:10;;;;;;;5.18;4.70;;;15.40;84.60;;;;;;5115534;28;20102;-73
2021/05/13 05:17:36;;;;;;;8.48;5.03;;;15.30;84.40;;;;;;5115622;27;20028;-71
2021/05/13 05:20:03;;;;;;;6.22;4.70;;;15.40;84.50;;;;;;5115517;28;20118;-72
2021/05/13 05:22:29;;;;;;;4.88;4.38;;;15.40;84.80;;;;;;5115497;28;20380;-75
2021/05/13 05:24:55;;;;;;;4.05;3.63;;;15.40;84.80;;;;;;5115341;28;20052;-72
2021/05/13 05:27:21;;;;;;;4.20;3.72;;;15.40;84.50;;;;;;5115344;28;20036;-71
2021/05/13 05:29:47;;;;;;;5.40;3.90;;;15.50;84.50;;;;;;5116374;28;20024;-71
2021/05/13 05:32:13;;;;;;;6.10;3.80;;;15.50;84.50;;;;;;5115359;28;20471;-74
2021/05/13 05:34:39;;;;;;;5.80;3.45;;;15.50;84.20;;;;;;5115150;28;20156;-71
2021/05/13 05:37:04;;;;;;;6.82;4.30;;;15.50;84.10;;;;;;5115207;28;20072;-73
2021/05/13 05:39:30;;;;;;;7.10;4.05;;;15.60;84.20;;;;;;5115032;28;20034;-71
2021/05/13 05:41:56;;;;;;;6.40;4.30;;;15.50;84.00;;;;;;5115030;28;20096;-71
2021/05/13 05:44:23;;;;;;;7.80;4.10;;;15.60;84.10;;;;;;5114965;28;20030;-73
2021/05/13 05:46:49;;;;;;;7.65;4.10;;;15.60;83.90;;;;;;5114454;28;20035;-69
2021/05/13 05:49:15;;;;;;;6.70;4.38;;;15.60;83.60;;;;;;5114927;28;20024;-74
2021/05/13 05:51:40;;;;;;;9.13;5.00;;;15.60;83.50;;;;;;5114845;28;20098;-74
2021/05/13 05:54:06;;;;;;;13.45;5.20;;;15.60;83.50;;;;;;5114869;28;20402;-70
2021/05/13 05:56:32;;;;;;;7.97;4.68;;;15.60;83.40;;;;;;5114540;28;20059;-72
2021/05/13 05:58:58;;;;;;;4.53;3.88;;;15.60;83.30;;;;;;5114454;28;20488;-68
2021/05/13 06:01:24;;;;;;;7.05;3.50;;;15.60;83.20;;;;;;5114744;28;20035;-73
2021/05/13 06:03:50;;;;;;;7.65;3.50;;;15.60;83.00;;;;;;5113677;28;20035;-71
2021/05/13 06:06:15;;;;;;;5.97;3.45;;;15.60;82.80;;;;;;5111568;28;20032;-73
2021/05/13 06:08:41;;;;;;;9.18;3.50;;;15.70;82.80;;;;;;5113479;28;20026;-70
2021/05/13 06:11:07;;;;;;;6.57;2.75;;;15.60;82.90;;;;;;5113599;28;20035;-67
2021/05/13 06:13:32;;;;;;;7.22;3.30;;;15.70;82.90;;;;;;5114622;28;20375;-71
2021/05/13 06:15:58;;;;;;;4.70;3.35;;;15.70;82.90;;;;;;5113514;28;20535;-73
2021/05/13 06:18:24;;;;;;;4.43;3.30;;;15.70;83.00;;;;;;5112902;28;20030;-71
2021/05/13 06:20:50;;;;;;;4.65;3.83;;;15.70;83.10;;;;;;5113690;28;20388;-71
2021/05/13 06:23:17;;;;;;;6.18;3.45;;;15.80;83.10;;;;;;5113324;28;20031;-71
2021/05/13 06:25:42;;;;;;;4.78;2.78;;;15.80;83.10;;;;;;5114344;28;20024;-67
2021/05/13 06:28:08;;;;;;;3.15;2.85;;;15.80;83.00;;;;;;5112874;28;20486;-70
2021/05/13 06:30:34;;;;;;;4.50;2.80;;;15.80;82.70;;;;;;5113933;28;20077;-67
2021/05/13 06:33:00;;;;;;;6.72;4.32;;;15.80;82.20;;;;;;5114095;28;20035;-71
2021/05/13 06:35:26;;;;;;;8.63;4.40;;;15.80;82.10;;;;;;5114177;28;20024;-71
2021/05/13 06:37:52;;;;;;;8.45;4.95;;;15.90;82.40;;;;;;5113404;28;20024;-72
2021/05/13 06:40:18;;;;;;;5.95;4.90;;;15.90;82.60;;;;;;5111287;28;20035;-71
2021/05/13 06:42:44;;;;;;;7.40;5.20;;;15.90;82.80;;;;;;5111153;28;20035;-68
2021/05/13 06:45:11;;;;;;;8.52;4.32;;;16.00;83.10;;;;;;5110585;28;20028;-72
2021/05/13 06:47:40;;;;;;;10.25;4.45;;;16.00;82.80;;;;;;5110834;28;20226;-68
2021/05/13 06:50:07;;;;;;;5.68;3.80;;;16.00;82.80;;;;;;5111610;28;20023;-69
2021/05/13 06:52:33;;;;;;;4.60;2.53;;;16.10;83.00;;;;;;5113792;28;20019;-71
2021/05/13 06:54:59;;;;;;;3.13;2.50;;;16.10;81.80;;;;;;5113814;28;20536;-72
2021/05/13 06:57:24;;;;;;;5.03;2.63;;;16.20;81.00;;;;;;5113456;28;20020;-68
2021/05/13 06:59:50;;;;;;;5.88;2.85;;;16.20;81.00;;;;;;5113510;28;20063;-67
2021/05/13 07:02:16;;;;;;;4.95;2.03;;;16.20;81.40;;;;;;5113664;28;20376;-71
2021/05/13 07:04:42;;;;;;;8.07;2.08;;;16.30;81.50;;;;;;5113450;28;20035;-68
2021/05/13 07:07:08;;;;;;;7.00;2.50;;;16.40;81.30;;;;;;5110837;28;20023;-68
2021/05/13 07:09:34;;;;;;;4.85;2.05;;;16.40;81.40;;;;;;5110547;28;20031;-69
2021/05/13 07:12:00;;;;;;;6.70;2.88;;;16.50;80.90;;;;;;5112770;28;20027;-66
2021/05/13 07:14:26;;;;;;;4.50;2.70;;;16.50;80.20;;;;;;5111863;28;20114;-67
2021/05/13 07:16:51;;;;;;;5.30;3.22;;;16.60;80.60;;;;;;5110918;28;20034;-67
2021/05/13 07:19:20;;;;;;;7.25;3.40;;;16.50;80.30;;;;;;5113548;28;20525;-67
2021/05/13 07:21:46;;;;;;;4.65;3.05;;;16.50;80.20;;;;;;5113121;28;20039;-67
2021/05/13 07:24:12;;;;;;;5.97;3.00;;;16.50;80.30;;;;;;5113618;28;20024;-67
2021/05/13 07:26:38;;;;;;;6.78;2.83;;;16.60;80.70;;;;;;5113638;28;20069;-67
2021/05/13 07:29:05;;;;;;;6.72;2.95;;;16.60;80.80;;;;;;5113389;28;20044;-67
2021/05/13 07:31:32;;;;;;;6.30;3.35;;;16.70;80.20;;;;;;5113345;28;20476;-67
2021/05/13 07:33:58;;;;;;;6.78;3.10;;;16.70;80.10;;;;;;5115938;28;20044;-67
2021/05/13 07:36:24;;;;;;;4.50;2.90;;;16.70;80.00;;;;;;5117479;28;20031;-67
2021/05/13 07:38:50;;;;;;;4.93;2.63;;;16.70;79.60;;;;;;5117879;28;20054;-67
2021/05/13 07:41:16;;;;;;;6.20;2.47;;;16.70;78.70;;;;;;5117412;28;20408;-66
2021/05/13 07:43:43;;;;;;;4.95;2.83;;;16.70;78.60;;;;;;5116215;28;20452;-67
2021/05/13 07:46:09;;;;;;;2.97;1.90;;;16.70;78.40;;;;;;5117523;28;20031;-67
2021/05/13 07:48:35;;;;;;;1.67;0.70;;;16.60;78.00;;;;;;5117455;28;20051;-68
2021/05/13 07:51:02;;;;;;;4.57;0.82;;;16.50;76.40;;;;;;5117453;28;20076;-67
2021/05/13 07:53:27;;;;;;;4.97;0.90;;;16.40;76.10;;;;;;5117386;28;20093;-67
2021/05/13 07:55:54;;;;;;;3.08;0.82;;;16.30;76.80;;;;;;5117231;28;20130;-67
2021/05/13 07:58:20;;;;;;;5.30;1.20;;;16.20;77.30;;;;;;5117260;28;20031;-67
2021/05/13 08:00:46;;;;;;;3.33;1.30;;;16.10;77.20;;;;;;5117129;28;20553;-66
2021/05/13 08:03:12;;;;;;;3.05;1.35;;;16.00;77.50;;;;;;5117120;28;20028;-67
2021/05/13 08:05:38;;;;;;;5.38;1.17;;;16.00;77.70;;;;;;5117155;28;20027;-66
2021/05/13 08:08:04;;;;;;;10.35;2.45;;;15.90;78.50;;;;;;5115733;28;20073;-67
2021/05/13 08:10:30;;;;;;;3.88;2.00;;;15.80;79.40;;;;;;5116915;28;20110;-67
2021/05/13 08:12:56;;;;;;;4.88;2.40;;;15.80;80.00;;;;;;5116822;28;20053;-67
2021/05/13 08:15:22;;;;;;;7.93;2.55;;;15.80;80.70;;;;;;5116868;28;20031;-67
2021/05/13 08:17:48;;;;;;;10.10;3.00;;;15.70;81.70;;;;;;5116684;28;20024;-67
2021/05/13 08:20:16;;;;;;;7.68;3.20;;;15.70;82.20;;;;;;5116565;28;20028;-67
2021/05/13 08:22:44;;;;;;;7.10;3.80;;;15.70;82.80;;;;;;5116613;28;20027;-66
2021/05/13 08:25:10;;;;;;;7.03;4.32;;;15.70;83.30;;;;;;5116830;28;20024;-66
2021/05/13 08:27:36;;;;;;;8.95;3.78;;;15.70;83.70;;;;;;5116746;28;20039;-66
2021/05/13 08:30:07;;;;;;;2.83;1.83;;;15.70;84.50;;;;;;5116414;28;20043;-67
2021/05/13 08:32:33;;;;;;;3.97;2.67;;;15.70;84.60;;;;;;5116691;28;20027;-67
2021/05/13 08:34:59;;;;;;;7.18;3.10;;;15.70;83.40;;;;;;5116756;28;20076;-67
2021/05/13 08:37:25;;;;;;;6.20;4.43;;;15.70;83.20;;;;;;5116513;28;20015;-72
2021/05/13 08:39:51;;;;;;;9.35;5.90;;;15.70;83.50;;;;;;5116478;28;20477;-73
2021/05/13 08:42:17;;;;;;;7.88;5.88;;;15.70;84.40;;;;;;5116292;28;20039;-72
2021/05/13 08:44:44;;;;;;;9.90;6.30;;;15.70;84.80;;;;;;5115368;28;20026;-68
2021/05/13 08:47:11;;;;;;;8.15;6.32;;;15.70;85.20;;;;;;5116064;28;20106;-67
2021/05/13 08:49:41;;;;;;;9.00;6.85;;;15.80;85.30;;;;;;5116232;28;20012;-68
2021/05/13 08:52:11;;;;;;;7.25;6.55;;;15.80;86.10;;;;;;5115796;28;20035;-73
2021/05/13 08:54:50;;;;;;;9.32;5.80;;;15.90;86.60;;;;;;5115965;28;20032;-72
2021/05/13 08:57:16;;;;;;;4.63;4.03;;;16.00;86.30;;;;;;5115700;28;20537;-73
2021/05/13 08:59:42;;;;;;;4.28;3.88;;;16.00;84.20;;;;;;5114688;28;20056;-71
2021/05/13 09:02:10;;;;;;;6.20;3.80;;;16.00;83.00;;;;;;5114356;28;20067;-72
2021/05/13 09:04:41;;;;;;;4.95;4.45;;;16.10;83.40;;;;;;5115552;28;20103;-71
2021/05/13 09:07:28;;;;;;;7.75;3.90;;;16.10;82.20;;;;;;5114760;28;20077;-73
2021/05/13 09:10:08;;;;;;;6.82;3.65;;;16.20;82.10;;;;;;5114564;28;20016;-72
2021/05/13 09:12:36;;;;;;;3.78;3.47;;;16.20;82.00;;;;;;5114980;28;20053;-73
2021/05/13 09:15:09;;;;;;;4.03;3.55;;;16.30;81.20;;;;;;5115001;28;20027;-73
2021/05/13 09:17:37;;;;;;;3.70;3.40;;;16.20;79.60;;;;;;5115006;28;20541;-73
2021/05/13 09:20:05;;;;;;;4.40;3.50;;;16.20;80.00;;;;;;5114291;28;20023;-71
2021/05/13 09:22:31;;;;;;;3.88;3.40;;;16.20;80.90;;;;;;5115239;28;20028;-73
2021/05/13 09:25:07;;;;;;;5.05;3.55;;;16.30;81.40;;;;;;5115263;28;20019;-71
2021/05/13 09:27:35;;;;;;;6.00;3.65;;;16.40;80.70;;;;;;5115145;28;20026;-73
2021/05/13 09:30:25;;;;;;;4.88;3.75;;;16.50;80.50;;;;;;5113155;28;20024;-67
2021/05/13 09:32:53;;;;;;;4.00;3.55;;;16.60;79.90;;;;;;5115163;27;20159;-67
2021/05/13 09:35:25;;;;;;;5.75;3.30;;;16.60;80.90;;;;;;5115179;28;20031;-69
2021/05/13 09:37:59;;;;;;;3.50;2.80;;;16.70;80.40;;;;;;5115364;28;20024;-68
2021/05/13 09:40:52;;;;;;;6.03;3.20;;;16.80;79.90;;;;;;5114872;28;20434;-67
2021/05/13 09:43:28;;;;;;;1.75;1.60;;;16.90;80.60;;;;;;5115101;28;20114;-69
2021/05/13 09:46:03;;;;;;;2.42;1.80;;;17.00;80.20;;;;;;5114876;28;20095;-68
2021/05/13 09:48:47;;;;;;;4.05;1.55;;;17.10;78.60;;;;;;5115054;28;20434;-67
2021/05/13 09:51:20;;;;;;;4.85;0.85;;;17.10;78.00;;;;;;5115025;28;20080;-68
2021/05/13 09:53:48;;;;;;;1.33;0.82;;;17.20;78.40;;;;;;5114771;28;20024;-67
2021/05/13 09:56:25;;;;;;;1.25;0.77;;;17.20;79.10;;;;;;5114565;28;20024;-67
2021/05/13 09:58:51;;;;;;;1.67;0.88;;;17.20;74.60;;;;;;5114419;28;20502;-67
2021/05/13 10:01:17;;;;;;;1.20;0.60;;;17.30;76.00;;;;;;5114812;28;20027;-67
2021/05/13 10:03:45;;;;;;;1.20;0.65;;;17.30;74.20;;;;;;5114593;28;20016;-67
2021/05/13 10:06:11;;;;;;;2.65;1.10;;;17.30;73.70;;;;;;5114679;28;20085;-67
2021/05/13 10:08:38;;;;;;;1.98;0.90;;;17.30;72.30;;;;;;5114711;28;20090;-70
2021/05/13 10:11:06;;;;;;;3.35;1.70;;;17.20;74.20;;;;;;5114593;28;20026;-67
2021/05/13 10:13:33;;;;;;;6.07;1.55;;;17.20;75.50;;;;;;5113049;28;20050;-69
2021/05/13 10:16:00;;;;;;;2.50;1.38;;;17.20;75.40;;;;;;5114590;28;20101;-68
2021/05/13 10:18:42;;;;;;;2.00;1.40;;;17.10;75.80;;;;;;5113233;28;20390;-67
2021/05/13 10:21:21;;;;;;;2.10;1.25;;;17.10;75.00;;;;;;5114353;28;20092;-67
2021/05/13 10:23:52;;;;;;;2.67;1.67;;;17.10;76.30;;;;;;5114306;28;20020;-67
2021/05/13 10:26:29;;;;;;;3.97;1.65;;;17.20;77.10;;;;;;5114108;28;20465;-67
2021/05/13 10:28:56;;;;;;;3.20;1.30;;;17.20;76.10;;;;;;5114083;28;20107;-67
2021/05/13 10:31:35;;;;;;;2.85;1.30;;;17.20;76.50;;;;;;5114369;28;20088;-67
2021/05/13 10:34:01;;;;;;;3.22;1.58;;;17.30;77.40;;;;;;5113128;28;20019;-67
2021/05/13 10:36:27;;;;;;;2.65;1.63;;;17.30;76.60;;;;;;5114345;28;20030;-67
2021/05/13 10:39:11;;;;;;;2.55;1.20;;;17.40;77.00;;;;;;5113913;28;20410;-67
2021/05/13 10:41:46;;;;;;;2.30;1.27;;;17.50;77.90;;;;;;5113106;28;20395;-67
2021/05/13 10:44:11;;;;;;;4.38;1.00;;;17.50;77.80;;;;;;5112709;28;20027;-67
2021/05/13 10:46:39;;;;;;;1.77;1.10;;;17.50;75.40;;;;;;5111751;28;20028;-67
2021/05/13 10:49:27;;;;;;;1.77;1.00;;;17.50;77.30;;;;;;5111178;28;20016;-67
2021/05/13 10:51:58;;;;;;;6.30;1.00;;;17.60;77.60;;;;;;5113459;28;20039;-67
2021/05/13 10:54:29;;;;;;;3.65;0.95;;;17.80;75.80;;;;;;5111834;28;20514;-68
2021/05/13 10:57:20;;;;;;;1.00;0.90;;;18.00;75.30;;;;;;5110824;28;20032;-68
2021/05/13 11:00:13;;;;;;;5.72;1.05;;;18.30;76.90;;;;;;5113465;28;20100;-67
2021/05/13 11:02:46;;;;;;;2.35;1.00;;;18.40;72.40;;;;;;5113775;28;20053;-69
2021/05/13 11:05:30;;;;;;;1.25;0.88;;;18.50;74.10;;;;;;5114257;28;20126;-67
2021/05/13 11:08:07;;;;;;;1.63;0.70;;;18.50;74.40;;;;;;5113457;28;20034;-68
2021/05/13 11:10:48;;;;;;;1.95;0.75;;;18.60;71.70;;;;;;5113635;28;20024;-69
2021/05/13 11:13:15;;;;;;;9.27;0.98;;;18.60;72.90;;;;;;5112953;28;20028;-68
2021/05/13 11:15:47;;;;;;;3.70;0.93;;;18.60;73.70;;;;;;5113022;28;20029;-69
2021/05/13 11:18:14;;;;;;;1.13;0.60;;;18.50;71.80;;;;;;5113572;28;20506;-68
2021/05/13 11:20:46;;;;;;;3.95;0.70;;;18.50;71.30;;;;;;5113403;28;20073;-67
2021/05/13 11:23:18;;;;;;;1.05;0.40;;;18.40;72.30;;;;;;5113478;28;20038;-67
2021/05/13 11:25:51;;;;;;;2.75;0.85;;;18.40;73.30;;;;;;5113439;28;20019;-68
2021/05/13 11:28:22;;;;;;;1.70;0.70;;;18.30;73.80;;;;;;5113398;28;20376;-71
2021/05/13 11:30:49;;;;;;;3.83;0.60;;;18.30;73.80;;;;;;5113404;28;20494;-68
2021/05/13 11:33:15;;;;;;;1.88;0.50;;;18.30;74.60;;;;;;5113551;28;20098;-67
2021/05/13 11:35:41;;;;;;;1.42;0.65;;;18.20;74.00;;;;;;5113411;28;20024;-68
2021/05/13 11:38:18;;;;;;;2.47;0.50;;;18.30;73.90;;;;;;5113559;28;20092;-66
2021/05/13 11:40:45;;;;;;;1.55;0.50;;;18.30;72.50;;;;;;5113148;28;20028;-67
2021/05/13 11:43:21;;;;;;;3.75;0.55;;;18.30;72.00;;;;;;5113513;28;20036;-66
2021/05/13 11:45:48;;;;;;;3.42;0.70;;;18.30;71.60;;;;;;5113593;28;20020;-67
2021/05/13 11:48:20;;;;;;;2.60;0.90;;;18.20;71.90;;;;;;5113207;28;20048;-67
2021/05/13 11:50:47;;;;;;;2.17;0.80;;;18.30;72.00;;;;;;5113294;28;20027;-67
2021/05/13 11:53:14;;;;;;;1.90;0.80;;;18.20;71.30;;;;;;5113485;28;20020;-68
2021/05/13 11:55:44;;;;;;;3.17;0.60;;;18.20;72.30;;;;;;5113577;28;20023;-72
2021/05/13 11:58:11;;;;;;;1.08;0.50;;;18.20;72.10;;;;;;5112434;28;20106;-71
2021/05/13 12:00:38;;;;;;;3.35;0.80;;;18.20;71.70;;;;;;5112269;28;20040;-70
2021/05/13 12:03:12;;;;;;;5.70;0.70;;;18.20;73.50;;;;;;5111396;28;20028;-68
2021/05/13 12:05:50;;;;;;;2.78;0.60;;;18.20;71.50;;;;;;5112838;28;20020;-68
2021/05/13 12:08:23;;;;;;;2.15;0.63;;;18.10;72.60;;;;;;5113123;28;20425;-68
2021/05/13 12:10:50;;;;;;;2.00;0.60;;;18.10;71.00;;;;;;5112902;28;20023;-66
2021/05/13 12:13:17;;;;;;;3.22;0.60;;;18.10;71.40;;;;;;5113129;28;20102;-72
2021/05/13 12:15:44;;;;;;;1.77;0.65;;;18.10;72.60;;;;;;5113152;28;20027;-72
2021/05/13 12:18:10;;;;;;;4.15;0.60;;;18.10;70.40;;;;;;5113123;28;20031;-72
2021/05/13 12:20:38;;;;;;;2.63;0.70;;;18.10;70.80;;;;;;5114626;28;20012;-72
2021/05/13 12:23:05;;;;;;;1.65;0.40;;;18.10;70.10;;;;;;5116670;28;20059;-73
2021/05/13 12:25:32;;;;;;;2.67;0.75;;;18.10;70.40;;;;;;5118978;27;20131;-72
2021/05/13 12:27:59;;;;;;;3.38;0.65;;;18.10;71.30;;;;;;5116470;27;20573;-72
2021/05/13 12:30:25;;;;;;;5.68;0.85;;;18.20;72.30;;;;;;5116232;28;20020;-73
2021/05/13 12:32:51;;;;;;;4.50;0.55;;;18.20;71.30;;;;;;5116191;28;20028;-72
2021/05/13 12:35:35;;;;;;;2.97;0.55;;;18.20;69.80;;;;;;5116465;28;20030;-72
2021/05/13 12:38:14;;;;;;;2.38;0.93;;;18.20;69.10;;;;;;5115686;28;20031;-72
2021/05/13 12:40:41;;;;;;;4.80;1.15;;;18.10;69.20;;;;;;5115415;28;20528;-73
2021/05/13 12:43:18;;;;;;;2.25;0.77;;;18.10;66.50;;;;;;5115299;28;20480;-72
2021/05/13 12:45:51;;;;;;;5.30;0.80;;;18.10;68.10;;;;;;5115843;28;20012;-72
2021/05/13 12:48:25;;;;;;;3.58;0.80;;;18.00;66.90;;;;;;5115558;28;20027;-68
2021/05/13 12:51:02;;;;;;;4.55;1.35;;;18.00;67.50;;;;;;5114837;28;20387;-72
2021/05/13 12:53:30;;;;;;;3.67;0.98;;;18.00;70.40;;;;;;5113724;28;20016;-71
2021/05/13 12:55:56;;;;;;;4.10;0.93;;;18.10;73.30;;;;;;5114097;28;20019;-71
2021/05/13 12:58:27;;;;;;;3.40;1.10;;;18.10;75.10;;;;;;5115389;28;20114;-70